Time;durP1;ratioP1;P1;durP2;ratioP2;P2;SDS_P1;SDS_P2;PMS_P1;PMS_P2;Temp;Humidity;BMP_temperature;BMP_pressure;BME280_temperature;BME280_humidity;BME280_pressure;Samples;Min_cycle;Max_cycle;Signal;HPM_P1;HPM_P2
2022/08/12 00:44:37;;;;;;;;;;;21.00;99.90;;;;;;5089424;28;19924;-70
2022/08/12 00:47:04;;;;;;;;;;;20.90;99.90;;;;;;5082602;28;20454;-70
2022/08/12 00:49:31;;;;;;;;;;;20.80;99.90;;;;;;5082345;28;19967;-69
2022/08/12 00:52:11;;;;;;;;;;;20.60;99.90;;;;;;5089272;28;20363;-69
2022/08/12 00:54:42;;;;;;;;;;;20.60;99.90;;;;;;5088362;28;20314;-69
2022/08/12 00:57:10;;;;;;;;;;;20.50;99.90;;;;;;5095337;28;19928;-69
2022/08/12 00:59:37;;;;;;;;;;;20.40;99.90;;;;;;5086933;28;20056;-68
2022/08/12 01:02:05;;;;;;;;;;;20.40;99.90;;;;;;5089301;28;19970;-68
2022/08/12 01:12:46;;;;;;;;;;;20.20;99.90;;;;;;5094104;28;19920;-69
2022/08/12 01:15:13;;;;;;;;;;;20.20;99.90;;;;;;5093098;28;19960;-68
2022/08/12 01:17:41;;;;;;;;;;;20.20;99.90;;;;;;5093242;28;19971;-68
2022/08/12 01:20:12;;;;;;;;;;;20.20;99.90;;;;;;5093136;28;19982;-69
2022/08/12 01:22:44;;;;;;;;;;;20.10;99.90;;;;;;5094650;28;19963;-68
2022/08/12 01:25:16;;;;;;;;;;;20.10;99.90;;;;;;5094947;28;19970;-69
2022/08/12 01:27:44;;;;;;;;;;;20.00;99.90;;;;;;5092958;28;20034;-69
2022/08/12 01:30:12;;;;;;;;;;;20.00;99.90;;;;;;5094004;28;19924;-68
2022/08/12 01:32:39;;;;;;;;;;;20.00;99.90;;;;;;5093205;28;19931;-68
2022/08/12 01:35:08;;;;;;;;;;;20.00;99.90;;;;;;5092921;28;19928;-69
2022/08/12 01:37:36;;;;;;;;;;;20.00;99.90;;;;;;5092826;28;19924;-68
2022/08/12 01:40:04;;;;;;;;;;;19.90;99.90;;;;;;5092922;28;20395;-68
2022/08/12 01:42:39;;;;;;;;;;;20.00;99.90;;;;;;5086286;28;19927;-68
2022/08/12 01:45:06;;;;;;;;;;;20.00;99.90;;;;;;5089192;28;19936;-68
2022/08/12 01:47:39;;;;;;;;;;;20.00;99.90;;;;;;5085396;28;19931;-68
2022/08/12 01:50:17;;;;;;;;;;;19.90;99.90;;;;;;5089674;28;19935;-68
2022/08/12 01:52:58;;;;;;;;;;;19.90;99.90;;;;;;5093100;28;19928;-69
2022/08/12 01:55:27;;;;;;;;;;;19.80;99.90;;;;;;5085026;28;19924;-68
2022/08/12 01:58:00;;;;;;;;;;;19.70;99.90;;;;;;5088119;28;19928;-68
2022/08/12 02:00:34;;;;;;;;;;;19.60;99.90;;;;;;5092259;28;20342;-69
2022/08/12 02:03:03;;;;;;;;;;;19.50;99.90;;;;;;5092496;28;19924;-69
2022/08/12 02:11:20;;;;;;;;;;;19.40;99.90;;;;;;5090702;28;19920;-68
2022/08/12 02:14:05;;;;;;;;;;;19.30;99.90;;;;;;5092514;28;20399;-69
2022/08/12 02:16:40;;;;;;;;;;;19.30;99.90;;;;;;5092324;28;19924;-68
2022/08/12 02:19:15;;;;;;;;;;;19.30;99.90;;;;;;5090849;28;19946;-68
2022/08/12 02:21:45;;;;;;;;;;;19.30;99.90;;;;;;5092657;28;20040;-68
2022/08/12 02:24:15;;;;;;;;;;;19.30;99.90;;;;;;5091365;28;20042;-68
2022/08/12 02:26:44;;;;;;;;;;;19.30;99.90;;;;;;5092141;28;19924;-68
2022/08/12 02:29:12;;;;;;;;;;;19.10;99.90;;;;;;5094271;28;19993;-68
2022/08/12 02:31:42;;;;;;;;;;;19.10;99.90;;;;;;5091918;28;19924;-68
2022/08/12 02:34:11;;;;;;;;;;;19.10;99.90;;;;;;5092151;28;19924;-69
2022/08/12 02:36:39;;;;;;;;;;;19.00;99.90;;;;;;5091926;28;20279;-68
2022/08/12 02:39:08;;;;;;;;;;;19.00;99.90;;;;;;5090759;28;19934;-68
2022/08/12 02:41:36;;;;;;;;;;;18.90;99.90;;;;;;5091882;28;19935;-68
2022/08/12 02:44:07;;;;;;;;;;;18.80;99.90;;;;;;5091646;28;19962;-69
2022/08/12 02:46:35;;;;;;;;;;;18.80;99.90;;;;;;5085253;28;19962;-68
2022/08/12 02:49:06;;;;;;;;;;;18.80;99.90;;;;;;5091168;28;20311;-68
2022/08/12 02:51:33;;;;;;;;;;;18.80;99.90;;;;;;5090651;28;19959;-68
2022/08/12 02:54:02;;;;;;;;;;;18.80;99.90;;;;;;5091662;28;19924;-68
2022/08/12 02:56:29;;;;;;;;;;;18.80;99.90;;;;;;5085277;28;19924;-68
2022/08/12 02:58:56;;;;;;;;;;;18.70;99.90;;;;;;5091006;28;19928;-68
2022/08/12 03:01:27;;;;;;;;;;;18.70;99.90;;;;;;5085422;28;19924;-69
2022/08/12 03:03:56;;;;;;;;;;;18.70;99.90;;;;;;5088021;28;20291;-68
2022/08/12 03:06:26;;;;;;;;;;;18.60;99.90;;;;;;5091503;28;19924;-68
2022/08/12 03:08:54;;;;;;;;;;;18.60;99.90;;;;;;5090874;28;20360;-68
2022/08/12 03:11:22;;;;;;;;;;;18.60;99.90;;;;;;5083438;28;19924;-68
2022/08/12 03:13:51;;;;;;;;;;;18.50;99.90;;;;;;5091442;28;19928;-67
2022/08/12 03:16:18;;;;;;;;;;;18.50;99.90;;;;;;5091327;28;19928;-68
2022/08/12 03:18:45;;;;;;;;;;;18.50;99.90;;;;;;5089947;28;19951;-66
2022/08/12 03:21:12;;;;;;;;;;;18.50;99.90;;;;;;5091035;28;20372;-68
2022/08/12 03:23:42;;;;;;;;;;;18.40;99.90;;;;;;5091278;28;20318;-68
2022/08/12 03:26:08;;;;;;;;;;;18.30;99.90;;;;;;5090729;28;20391;-68
2022/08/12 03:28:52;;;;;;;;;;;18.30;99.90;;;;;;5090681;28;20300;-68
2022/08/12 03:31:20;;;;;;;;;;;18.30;99.90;;;;;;5086812;28;19931;-68
2022/08/12 03:33:48;;;;;;;;;;;18.30;99.90;;;;;;5091368;28;20383;-68
2022/08/12 03:36:17;;;;;;;;;;;18.20;99.90;;;;;;5089461;28;19932;-68
2022/08/12 03:38:57;;;;;;;;;;;18.20;99.90;;;;;;5086088;28;19931;-68
2022/08/12 03:41:34;;;;;;;;;;;18.10;99.90;;;;;;5088332;28;20310;-68
2022/08/12 04:00:36;;;;;;;;;;;17.80;99.90;;;;;;5079979;28;20007;-68
2022/08/12 04:03:50;;;;;;;;;;;17.70;99.90;;;;;;5089570;28;20365;-69
2022/08/12 04:05:49;;;;;;;;;;;17.60;99.90;;;;;;5084146;28;20395;-68
2022/08/12 04:08:17;;;;;;;;;;;17.60;99.90;;;;;;5090092;28;19936;-69
2022/08/12 04:13:29;;;;;;;;;;;17.70;99.90;;;;;;5089755;28;19931;-68
2022/08/12 04:15:57;;;;;;;;;;;17.80;99.90;;;;;;5089901;28;20408;-68
2022/08/12 04:18:24;;;;;;;;;;;17.70;99.90;;;;;;5090054;28;19928;-68
2022/08/12 04:20:51;;;;;;;;;;;17.70;99.90;;;;;;5089847;28;19928;-68
2022/08/12 04:23:19;;;;;;;;;;;17.70;99.90;;;;;;5090075;28;19928;-68
2022/08/12 04:25:47;;;;;;;;;;;17.70;99.90;;;;;;5090003;28;19928;-69
2022/08/12 04:28:14;;;;;;;;;;;17.80;99.90;;;;;;5089653;28;20411;-69
2022/08/12 04:30:40;;;;;;;;;;;17.80;99.90;;;;;;5089762;28;19931;-67
2022/08/12 04:33:08;;;;;;;;;;;17.80;99.90;;;;;;5084689;28;19924;-68
2022/08/12 04:35:35;;;;;;;;;;;17.80;99.90;;;;;;5110717;22;19924;-66
2022/08/12 04:38:04;;;;;;;;;;;17.80;99.90;;;;;;5027380;28;19925;-66
2022/08/12 04:40:32;;;;;;;;;;;17.70;99.90;;;;;;5029050;28;19975;-66
2022/08/12 04:43:00;;;;;;;;;;;17.70;99.90;;;;;;5030515;28;20024;-66
2022/08/12 04:45:27;;;;;;;;;;;17.80;99.90;;;;;;5030673;28;19925;-67
2022/08/12 04:47:53;;;;;;;;;;;17.70;99.90;;;;;;5028277;28;20015;-67
2022/08/12 04:50:20;;;;;;;;;;;17.70;99.90;;;;;;5029339;28;20479;-67
2022/08/12 04:52:59;;;;;;;;;;;17.80;99.90;;;;;;5029459;28;21292;-67
2022/08/12 04:55:26;;;;;;;;;;;17.80;99.90;;;;;;5030949;28;19968;-67
2022/08/12 04:57:53;;;;;;;;;;;17.80;99.90;;;;;;5028948;28;19925;-69
2022/08/12 05:00:21;;;;;;;;;;;17.90;99.90;;;;;;5027259;28;19936;-68
2022/08/12 05:02:48;;;;;;;;;;;18.00;99.90;;;;;;5025379;28;19932;-67
2022/08/12 05:05:17;;;;;;;;;;;18.00;99.90;;;;;;5028706;28;19933;-67
2022/08/12 05:07:44;;;;;;;;;;;18.20;99.90;;;;;;5028683;28;19956;-66
2022/08/12 05:10:11;;;;;;;;;;;18.20;99.90;;;;;;5028934;28;19933;-67
2022/08/12 05:12:43;;;;;;;;;;;18.30;99.90;;;;;;5029317;28;19976;-67
2022/08/12 05:15:12;;;;;;;;;;;18.40;99.90;;;;;;5029407;28;19925;-68
2022/08/12 05:17:41;;;;;;;;;;;18.30;99.90;;;;;;5029257;28;19925;-67
2022/08/12 05:20:10;;;;;;;;;;;18.40;99.90;;;;;;5028673;28;20420;-67
2022/08/12 05:22:37;;;;;;;;;;;18.50;99.90;;;;;;5029170;28;19979;-67
2022/08/12 05:25:05;;;;;;;;;;;18.50;99.90;;;;;;5028399;28;20006;-68
2022/08/12 05:27:32;;;;;;;;;;;18.50;99.90;;;;;;5026148;28;20015;-66
2022/08/12 05:29:59;;;;;;;;;;;18.50;99.90;;;;;;5028835;28;19928;-66
2022/08/12 05:32:27;;;;;;;;;;;18.60;99.90;;;;;;5029207;28;19933;-67
2022/08/12 05:34:55;;;;;;;;;;;18.50;99.90;;;;;;5029490;28;19929;-66
2022/08/12 05:37:22;;;;;;;;;;;18.60;99.90;;;;;;5026718;28;19937;-66
2022/08/12 05:39:49;;;;;;;;;;;18.70;99.90;;;;;;5028798;28;20019;-66
2022/08/12 05:42:17;;;;;;;;;;;18.70;99.90;;;;;;5027674;28;19925;-67
2022/08/12 05:44:43;;;;;;;;;;;18.80;99.90;;;;;;5029131;28;19932;-67
2022/08/12 05:47:11;;;;;;;;;;;18.90;99.90;;;;;;5029133;28;19932;-67
2022/08/12 05:49:39;;;;;;;;;;;18.90;99.90;;;;;;5028742;28;19933;-66
2022/08/12 05:52:08;;;;;;;;;;;19.10;99.90;;;;;;5029077;28;19979;-66
2022/08/12 05:54:40;;;;;;;;;;;19.10;99.90;;;;;;5029651;28;20451;-67
2022/08/12 05:57:07;;;;;;;;;;;19.20;99.90;;;;;;5032336;28;19971;-67
2022/08/12 05:59:33;;;;;;;;;;;19.30;99.90;;;;;;5032052;28;19925;-66
2022/08/12 06:02:06;;;;;;;;;;;19.40;99.90;;;;;;5032529;28;20343;-66
2022/08/12 06:04:34;;;;;;;;;;;19.50;99.90;;;;;;5032332;28;20393;-67
2022/08/12 06:07:01;;;;;;;;;;;19.70;99.90;;;;;;5032399;28;19925;-67
2022/08/12 06:09:30;;;;;;;;;;;19.80;99.90;;;;;;5031788;28;20020;-68
2022/08/12 06:11:56;;;;;;;;;;;19.90;99.90;;;;;;5032438;28;19925;-65
2022/08/12 06:14:23;;;;;;;;;;;20.00;99.90;;;;;;5032195;28;20292;-65
2022/08/12 06:16:51;;;;;;;;;;;20.20;99.90;;;;;;5031682;28;19932;-66
2022/08/12 06:19:17;;;;;;;;;;;20.30;99.90;;;;;;5031540;28;20024;-66
2022/08/12 06:21:47;;;;;;;;;;;20.40;99.90;;;;;;5032540;28;19925;-66
2022/08/12 06:24:17;;;;;;;;;;;20.60;99.90;;;;;;5031856;28;19931;-66
2022/08/12 06:26:45;;;;;;;;;;;20.80;99.90;;;;;;5031283;28;20023;-66
2022/08/12 06:29:18;;;;;;;;;;;20.90;99.90;;;;;;5029725;28;19928;-66
2022/08/12 06:31:49;;;;;;;;;;;21.00;99.90;;;;;;5030234;28;19925;-66
2022/08/12 06:34:16;;;;;;;;;;;21.10;99.90;;;;;;5029950;28;20471;-66
2022/08/12 06:36:43;;;;;;;;;;;21.30;99.90;;;;;;5029683;28;19928;-66
2022/08/12 06:39:10;;;;;;;;;;;21.40;99.90;;;;;;5029624;28;19979;-67
2022/08/12 06:44:28;;;;;;;;;;;21.70;99.90;;;;;;4995774;28;20036;-66
2022/08/12 06:46:56;;;;;;;;;;;21.80;99.90;;;;;;5031613;28;19925;-66
2022/08/12 06:49:22;;;;;;;;;;;21.90;99.90;;;;;;5029913;28;19986;-67
2022/08/12 06:51:49;;;;;;;;;;;22.00;99.90;;;;;;5031815;28;19925;-66
2022/08/12 06:54:16;;;;;;;;;;;22.00;99.90;;;;;;5031432;28;19933;-66
2022/08/12 06:56:43;;;;;;;;;;;22.20;99.90;;;;;;5031670;28;20302;-66
2022/08/12 06:59:10;;;;;;;;;;;22.30;99.90;;;;;;5030856;28;19925;-67
2022/08/12 07:01:38;;;;;;;;;;;22.30;99.90;;;;;;5031485;28;19929;-66
2022/08/12 07:04:05;;;;;;;;;;;22.40;99.90;;;;;;5031673;28;19925;-67
2022/08/12 07:06:32;;;;;;;;;;;22.50;99.90;;;;;;5024443;28;20375;-67
2022/08/12 07:08:58;;;;;;;;;;;22.60;99.90;;;;;;5030638;28;19932;-66
2022/08/12 07:11:27;;;;;;;;;;;22.60;99.90;;;;;;5030989;28;19925;-67
2022/08/12 07:13:57;;;;;;;;;;;22.70;99.90;;;;;;5031255;28;19948;-67
2022/08/12 07:16:25;;;;;;;;;;;22.70;99.90;;;;;;5031069;28;19929;-67
2022/08/12 07:18:55;;;;;;;;;;;22.80;99.90;;;;;;5030724;28;19929;-66
2022/08/12 07:21:23;;;;;;;;;;;22.90;99.90;;;;;;5030865;28;19929;-66
2022/08/12 07:23:50;;;;;;;;;;;22.90;99.90;;;;;;5031114;28;19925;-66
2022/08/12 07:26:18;;;;;;;;;;;23.00;99.90;;;;;;5030593;28;19983;-66
2022/08/12 07:28:49;;;;;;;;;;;23.00;99.90;;;;;;5030515;28;19925;-65
2022/08/12 07:31:17;;;;;;;;;;;23.00;99.90;;;;;;5030832;28;19940;-66
2022/08/12 07:33:43;;;;;;;;;;;23.10;99.90;;;;;;5030701;28;19925;-66
2022/08/12 07:36:13;;;;;;;;;;;23.10;99.90;;;;;;5030623;28;19932;-65
2022/08/12 07:38:42;;;;;;;;;;;23.20;99.90;;;;;;5030318;28;20495;-67
2022/08/12 07:41:11;;;;;;;;;;;23.20;99.90;;;;;;5030872;28;20423;-66
2022/08/12 07:43:39;;;;;;;;;;;23.30;99.90;;;;;;5030488;28;19933;-66
2022/08/12 07:46:07;;;;;;;;;;;23.40;99.90;;;;;;5030413;28;19925;-66
2022/08/12 07:48:36;;;;;;;;;;;23.60;99.90;;;;;;5030232;28;19952;-67
2022/08/12 07:51:03;;;;;;;;;;;23.70;99.90;;;;;;5030074;28;20424;-66
2022/08/12 07:53:31;;;;;;;;;;;23.70;99.90;;;;;;5030346;28;20344;-66
2022/08/12 07:55:58;;;;;;;;;;;23.70;99.90;;;;;;5029953;28;20021;-66
2022/08/12 07:58:25;;;;;;;;;;;23.80;99.90;;;;;;5029982;28;19980;-66
2022/08/12 08:00:53;;;;;;;;;;;24.00;99.90;;;;;;5030164;28;19925;-66
2022/08/12 08:03:21;;;;;;;;;;;24.10;99.90;;;;;;5030351;28;19993;-66
2022/08/12 08:05:48;;;;;;;;;;;24.30;99.90;;;;;;5030376;28;19929;-66
2022/08/12 08:08:16;;;;;;;;;;;24.40;99.90;;;;;;5029808;28;19925;-66
2022/08/12 08:10:45;;;;;;;;;;;24.50;99.90;;;;;;5029955;28;19936;-66
2022/08/12 08:13:11;;;;;;;;;;;24.50;99.90;;;;;;5030079;28;19925;-66
2022/08/12 08:15:39;;;;;;;;;;;24.50;99.90;;;;;;5029938;28;19921;-67
2022/08/12 08:18:07;;;;;;;;;;;24.60;99.90;;;;;;5028947;28;19925;-67
2022/08/12 08:20:34;;;;;;;;;;;24.70;99.90;;;;;;5029915;28;19925;-66
2022/08/12 08:23:04;;;;;;;;;;;24.80;99.90;;;;;;5029693;28;19952;-66
2022/08/12 08:25:32;;;;;;;;;;;24.90;99.90;;;;;;5029762;28;19925;-66
2022/08/12 08:28:01;;;;;;;;;;;25.00;99.90;;;;;;5029429;28;20347;-67
2022/08/12 08:30:29;;;;;;;;;;;25.20;99.90;;;;;;5029448;28;19979;-66
2022/08/12 08:32:56;;;;;;;;;;;25.30;99.90;;;;;;5029609;28;19925;-67
2022/08/12 08:35:23;;;;;;;;;;;25.40;99.90;;;;;;5029350;28;19936;-66
2022/08/12 08:37:50;;;;;;;;;;;25.40;99.90;;;;;;5029392;28;19936;-66
2022/08/12 08:43:06;;;;;;;;;;;25.60;99.90;;;;;;5029561;28;20385;-67
2022/08/12 08:45:33;;;;;;;;;;;25.70;99.90;;;;;;5024682;28;19925;-67
2022/08/12 08:47:59;;;;;;;;;;;25.80;99.90;;;;;;5029293;28;19932;-66
2022/08/12 08:50:27;;;;;;;;;;;25.90;99.90;;;;;;5029464;28;19933;-66
2022/08/12 08:52:54;;;;;;;;;;;26.00;99.10;;;;;;5029429;28;19936;-66
2022/08/12 08:55:20;;;;;;;;;;;26.00;99.30;;;;;;5029292;28;19933;-67
2022/08/12 08:57:51;;;;;;;;;;;26.10;99.20;;;;;;5028811;28;19925;-66
2022/08/12 09:00:19;;;;;;;;;;;26.30;99.10;;;;;;5029304;28;19952;-66
2022/08/12 09:02:47;;;;;;;;;;;26.30;98.70;;;;;;5029117;28;20343;-66
2022/08/12 09:05:14;;;;;;;;;;;26.30;99.20;;;;;;5029874;28;19933;-66
2022/08/12 09:07:42;;;;;;;;;;;26.40;99.00;;;;;;5028766;28;20380;-66
2022/08/12 09:10:09;;;;;;;;;;;26.40;98.90;;;;;;5028893;28;19925;-67
2022/08/12 09:15:22;;;;;;;;;;;26.80;98.70;;;;;;5029149;28;19925;-67
2022/08/12 09:17:54;;;;;;;;;;;26.90;98.20;;;;;;5028786;28;19929;-67
2022/08/12 09:20:25;;;;;;;;;;;27.10;97.60;;;;;;5027885;28;19929;-66
2022/08/12 09:22:53;;;;;;;;;;;27.10;97.30;;;;;;5029127;28;19937;-67
2022/08/12 09:25:20;;;;;;;;;;;27.10;97.60;;;;;;5029186;28;19929;-67
2022/08/12 09:27:47;;;;;;;;;;;27.30;97.50;;;;;;5029160;28;19932;-66
2022/08/12 09:30:16;;;;;;;;;;;27.40;97.70;;;;;;5032362;28;19933;-67
2022/08/12 09:32:49;;;;;;;;;;;27.50;97.00;;;;;;5033082;28;20455;-67
2022/08/12 09:35:18;;;;;;;;;;;27.60;97.10;;;;;;5032989;28;20031;-67
2022/08/12 09:37:45;;;;;;;;;;;27.70;96.90;;;;;;5032731;28;19929;-67
2022/08/12 09:40:13;;;;;;;;;;;27.80;96.50;;;;;;5032926;28;19929;-66
2022/08/12 09:45:24;;;;;;;;;;;28.00;96.10;;;;;;5033105;28;19961;-67
2022/08/12 09:47:53;;;;;;;;;;;28.20;95.90;;;;;;5028608;28;19925;-67
2022/08/12 09:50:21;;;;;;;;;;;28.40;95.80;;;;;;5032654;28;20366;-67
2022/08/12 09:52:51;;;;;;;;;;;28.50;95.20;;;;;;5032881;28;20328;-67
2022/08/12 09:55:18;;;;;;;;;;;28.60;94.40;;;;;;5032903;28;19932;-67
2022/08/12 09:57:45;;;;;;;;;;;28.70;94.40;;;;;;5032109;28;19929;-67
2022/08/12 10:00:12;;;;;;;;;;;28.80;94.20;;;;;;5032516;28;20028;-67
2022/08/12 10:02:39;;;;;;;;;;;28.80;93.70;;;;;;5032719;28;19933;-67
2022/08/12 10:05:09;;;;;;;;;;;28.90;94.10;;;;;;5032830;28;19929;-67
2022/08/12 10:07:36;;;;;;;;;;;29.00;93.90;;;;;;5032514;28;20024;-67
2022/08/12 10:10:03;;;;;;;;;;;28.90;92.80;;;;;;5032651;28;19929;-67
2022/08/12 10:15:14;;;;;;;;;;;29.10;92.70;;;;;;5031174;28;20307;-68
2022/08/12 10:17:41;;;;;;;;;;;29.20;92.30;;;;;;5027304;28;19929;-68
2022/08/12 10:20:09;;;;;;;;;;;29.20;91.70;;;;;;5024908;28;19925;-67
2022/08/12 10:22:38;;;;;;;;;;;29.20;91.40;;;;;;5032038;28;19929;-67
2022/08/12 10:30:34;;;;;;;;;;;29.40;91.00;;;;;;5029985;28;20037;-67
2022/08/12 10:33:00;;;;;;;;;;;29.50;91.00;;;;;;5030007;28;19936;-66
2022/08/12 10:35:31;;;;;;;;;;;29.60;90.50;;;;;;5031784;28;19979;-66
2022/08/12 10:38:00;;;;;;;;;;;29.70;90.20;;;;;;5031928;28;19940;-66
2022/08/12 10:40:28;;;;;;;;;;;29.60;90.10;;;;;;5032126;28;20015;-66
2022/08/12 10:45:41;;;;;;;;;;;29.70;90.50;;;;;;5026184;28;19921;-67
2022/08/12 10:48:08;;;;;;;;;;;29.90;90.90;;;;;;5031181;28;19929;-67
2022/08/12 10:50:36;;;;;;;;;;;29.90;89.60;;;;;;5026644;28;19936;-67
2022/08/12 10:53:06;;;;;;;;;;;29.90;90.10;;;;;;5032549;28;19973;-67
2022/08/12 10:55:32;;;;;;;;;;;29.90;90.40;;;;;;5032852;28;19932;-67
2022/08/12 10:58:00;;;;;;;;;;;30.10;90.30;;;;;;5032220;28;19928;-67
2022/08/12 11:00:26;;;;;;;;;;;29.90;90.30;;;;;;5032395;28;20381;-67
2022/08/12 11:02:53;;;;;;;;;;;29.90;90.20;;;;;;5032762;28;19924;-67
2022/08/12 11:05:20;;;;;;;;;;;30.10;90.00;;;;;;5032812;28;19925;-67
2022/08/12 11:07:49;;;;;;;;;;;30.40;89.90;;;;;;5032485;28;19925;-67
2022/08/12 11:10:17;;;;;;;;;;;30.60;89.60;;;;;;5031610;28;20344;-67
2022/08/12 11:12:48;;;;;;;;;;;30.90;89.70;;;;;;5032413;28;19925;-67
2022/08/12 11:15:14;;;;;;;;;;;31.00;87.80;;;;;;5032378;28;19925;-67
2022/08/12 11:17:41;;;;;;;;;;;31.20;88.70;;;;;;5032121;28;19929;-67
2022/08/12 11:20:08;;;;;;;;;;;31.30;87.00;;;;;;5032100;28;19933;-67
2022/08/12 11:22:36;;;;;;;;;;;31.40;86.60;;;;;;5031968;28;20420;-67
2022/08/12 11:25:07;;;;;;;;;;;31.50;87.00;;;;;;5033131;28;20299;-67
2022/08/12 11:27:34;;;;;;;;;;;31.60;87.60;;;;;;5031920;28;19925;-67
2022/08/12 11:30:01;;;;;;;;;;;31.70;86.30;;;;;;5028859;28;19929;-67
2022/08/12 11:32:27;;;;;;;;;;;31.70;85.20;;;;;;5031746;28;19925;-67
2022/08/12 11:34:54;;;;;;;;;;;31.70;84.40;;;;;;5031754;28;19932;-67
2022/08/12 11:37:21;;;;;;;;;;;31.90;84.90;;;;;;5028182;28;19929;-67
2022/08/12 11:39:48;;;;;;;;;;;32.90;82.80;;;;;;5028145;28;19929;-67
2022/08/12 11:42:16;;;;;;;;;;;34.70;82.70;;;;;;5030459;28;19971;-67
2022/08/12 11:44:43;;;;;;;;;;;36.90;80.90;;;;;;5030724;28;19929;-67
2022/08/12 11:47:09;;;;;;;;;;;37.90;79.70;;;;;;5031479;28;20363;-67
2022/08/12 11:49:36;;;;;;;;;;;39.10;77.00;;;;;;5031184;28;19937;-67
2022/08/12 11:52:03;;;;;;;;;;;39.80;75.90;;;;;;5031011;28;19929;-68
2022/08/12 11:54:30;;;;;;;;;;;40.60;74.90;;;;;;5027157;28;19925;-67
2022/08/12 11:56:57;;;;;;;;;;;41.80;74.10;;;;;;5030292;28;19925;-68
2022/08/12 11:59:25;;;;;;;;;;;43.40;73.00;;;;;;5037354;28;20348;-68
2022/08/12 12:01:52;;;;;;;;;;;43.40;70.20;;;;;;5031380;28;19975;-67
2022/08/12 12:04:19;;;;;;;;;;;43.60;69.80;;;;;;5030910;28;19925;-68
2022/08/12 12:06:46;;;;;;;;;;;44.30;68.40;;;;;;5031055;28;20518;-68
2022/08/12 12:09:12;;;;;;;;;;;44.70;67.90;;;;;;5030027;28;19925;-68
2022/08/12 12:11:42;;;;;;;;;;;45.30;67.50;;;;;;5031162;28;19925;-67
2022/08/12 12:14:08;;;;;;;;;;;45.50;67.20;;;;;;5031243;28;19925;-69
2022/08/12 12:16:37;;;;;;;;;;;45.30;65.90;;;;;;5032479;28;19932;-69
2022/08/12 12:19:04;;;;;;;;;;;45.60;65.00;;;;;;5030352;28;20412;-69
2022/08/12 12:21:31;;;;;;;;;;;45.90;66.30;;;;;;5023540;28;19925;-68
2022/08/12 12:23:58;;;;;;;;;;;45.50;63.80;;;;;;5031046;28;20028;-68
2022/08/12 12:26:24;;;;;;;;;;;43.90;64.10;;;;;;5030747;28;19925;-68
2022/08/12 12:28:51;;;;;;;;;;;43.90;64.10;;;;;;5030354;28;19975;-69
2022/08/12 12:31:18;;;;;;;;;;;44.20;63.80;;;;;;5031274;28;19929;-68
2022/08/12 12:33:46;;;;;;;;;;;43.00;63.90;;;;;;5030845;28;20355;-68
2022/08/12 12:36:13;;;;;;;;;;;43.60;64.00;;;;;;5030723;28;20352;-69
2022/08/12 12:38:40;;;;;;;;;;;44.20;64.40;;;;;;5030354;28;19975;-69
2022/08/12 12:41:06;;;;;;;;;;;44.90;64.00;;;;;;5030421;28;19933;-68
2022/08/12 12:43:33;;;;;;;;;;;45.50;62.20;;;;;;5030412;28;20351;-69
2022/08/12 12:46:00;;;;;;;;;;;44.40;61.60;;;;;;5029568;28;19933;-68
2022/08/12 12:48:27;;;;;;;;;;;43.60;63.70;;;;;;5030516;28;19929;-69
2022/08/12 12:53:36;;;;;;;;;;;44.20;61.90;;;;;;5027682;28;19925;-69
2022/08/12 12:56:03;;;;;;;;;;;44.80;60.70;;;;;;5029788;28;19929;-69
2022/08/12 12:58:30;;;;;;;;;;;45.30;60.60;;;;;;5029188;28;20385;-68
2022/08/12 13:00:58;;;;;;;;;;;44.40;61.30;;;;;;5029359;28;19936;-68
2022/08/12 13:03:25;;;;;;;;;;;44.50;61.30;;;;;;5029264;28;19929;-68
2022/08/12 13:05:52;;;;;;;;;;;44.00;61.30;;;;;;5029462;28;19987;-69
2022/08/12 13:08:23;;;;;;;;;;;43.80;61.90;;;;;;5029156;28;19933;-68
2022/08/12 13:10:50;;;;;;;;;;;43.60;61.00;;;;;;5029141;28;19925;-68
2022/08/12 13:13:18;;;;;;;;;;;43.50;61.90;;;;;;5029193;28;19933;-69
2022/08/12 13:15:46;;;;;;;;;;;43.60;62.40;;;;;;5028049;28;19925;-69
2022/08/12 13:18:14;;;;;;;;;;;44.20;63.20;;;;;;5027882;28;19925;-69
2022/08/12 13:20:42;;;;;;;;;;;44.90;62.30;;;;;;5029237;28;19932;-68
2022/08/12 13:23:09;;;;;;;;;;;44.90;61.50;;;;;;5029606;28;19933;-68
2022/08/12 13:25:40;;;;;;;;;;;45.00;62.60;;;;;;5029446;28;19995;-68
2022/08/12 13:28:07;;;;;;;;;;;45.10;62.00;;;;;;5028666;28;20392;-68
2022/08/12 13:30:35;;;;;;;;;;;45.80;61.10;;;;;;5028978;28;19929;-68
2022/08/12 13:33:01;;;;;;;;;;;46.00;60.80;;;;;;5029007;28;19932;-69
2022/08/12 13:35:29;;;;;;;;;;;45.60;60.80;;;;;;5028992;28;19932;-68
2022/08/12 13:37:58;;;;;;;;;;;45.30;60.60;;;;;;5028618;28;19925;-69
2022/08/12 13:40:25;;;;;;;;;;;45.60;61.20;;;;;;5029109;28;19925;-69
2022/08/12 13:42:56;;;;;;;;;;;45.40;61.20;;;;;;5025928;28;19975;-69
2022/08/12 13:45:24;;;;;;;;;;;45.40;61.20;;;;;;5021963;28;19961;-68
2022/08/12 13:47:54;;;;;;;;;;;45.50;61.40;;;;;;5026274;28;19960;-68
2022/08/12 13:50:21;;;;;;;;;;;46.10;60.30;;;;;;5027173;28;19925;-69
2022/08/12 13:52:49;;;;;;;;;;;46.50;61.70;;;;;;5026418;28;19925;-68
2022/08/12 13:55:16;;;;;;;;;;;46.90;60.60;;;;;;5029034;28;19925;-69
2022/08/12 13:57:43;;;;;;;;;;;46.70;58.60;;;;;;5028066;28;19925;-68
2022/08/12 14:00:12;;;;;;;;;;;46.00;59.80;;;;;;5027819;28;19926;-75
2022/08/12 14:02:38;;;;;;;;;;;44.30;58.70;;;;;;5029596;28;20447;-69
2022/08/12 14:05:08;;;;;;;;;;;43.80;59.90;;;;;;5028332;28;19925;-68
2022/08/12 14:07:50;;;;;;;;;;;43.10;59.90;;;;;;5028517;28;19953;-70
2022/08/12 14:10:36;;;;;;;;;;;42.80;60.30;;;;;;5028190;28;19933;-70
2022/08/12 14:13:04;;;;;;;;;;;42.90;60.00;;;;;;5028717;28;20308;-69
2022/08/12 14:15:32;;;;;;;;;;;44.10;60.90;;;;;;5026418;28;19925;-69
2022/08/12 14:18:05;;;;;;;;;;;44.80;59.60;;;;;;5032054;28;20010;-68
2022/08/12 14:20:32;;;;;;;;;;;45.40;59.30;;;;;;5028846;28;19932;-69
2022/08/12 14:22:59;;;;;;;;;;;45.30;59.40;;;;;;5031951;28;19929;-68
2022/08/12 14:25:27;;;;;;;;;;;45.00;59.10;;;;;;5028911;28;19933;-69
2022/08/12 14:27:54;;;;;;;;;;;45.30;58.80;;;;;;5031734;28;19925;-68
2022/08/12 14:30:22;;;;;;;;;;;44.70;58.60;;;;;;5030457;28;19932;-69
2022/08/12 14:32:50;;;;;;;;;;;44.90;58.90;;;;;;5028014;28;19928;-68
2022/08/12 14:35:18;;;;;;;;;;;44.50;58.80;;;;;;5031833;28;19933;-68
2022/08/12 14:37:45;;;;;;;;;;;44.80;59.00;;;;;;5031349;28;19925;-69
2022/08/12 14:40:12;;;;;;;;;;;45.00;58.40;;;;;;5031257;28;19925;-68
2022/08/12 14:42:38;;;;;;;;;;;45.00;59.30;;;;;;5031658;28;20415;-69
2022/08/12 14:45:06;;;;;;;;;;;45.60;57.90;;;;;;5031803;28;19929;-69
2022/08/12 14:47:33;;;;;;;;;;;45.50;56.80;;;;;;5031397;28;19964;-70
2022/08/12 14:50:01;;;;;;;;;;;45.30;57.20;;;;;;5031439;28;19932;-69
2022/08/12 14:52:28;;;;;;;;;;;44.70;57.80;;;;;;5031578;28;19925;-68
2022/08/12 14:54:55;;;;;;;;;;;44.30;57.50;;;;;;5031690;28;19925;-69
2022/08/12 14:57:21;;;;;;;;;;;44.10;62.30;;;;;;5031417;28;19933;-69
2022/08/12 15:02:33;;;;;;;;;;;43.90;57.00;;;;;;5025236;28;20048;-69
2022/08/12 15:05:03;;;;;;;;;;;44.60;58.50;;;;;;5031696;28;19943;-69
2022/08/12 15:07:29;;;;;;;;;;;45.30;58.70;;;;;;5030887;28;20452;-69
2022/08/12 15:09:56;;;;;;;;;;;45.50;57.80;;;;;;5030855;28;19987;-69
2022/08/12 15:12:23;;;;;;;;;;;45.30;58.40;;;;;;5030519;28;19925;-68
2022/08/12 15:14:50;;;;;;;;;;;45.90;58.50;;;;;;5029154;28;19933;-69
2022/08/12 15:17:17;;;;;;;;;;;46.30;57.70;;;;;;5029745;28;19948;-69
2022/08/12 15:19:43;;;;;;;;;;;46.10;57.30;;;;;;5030061;28;19925;-69
2022/08/12 15:22:11;;;;;;;;;;;45.50;57.90;;;;;;5030452;28;19925;-69
2022/08/12 15:24:38;;;;;;;;;;;45.70;57.30;;;;;;5028029;28;19925;-69
2022/08/12 15:27:05;;;;;;;;;;;45.30;57.30;;;;;;5030644;28;19926;-69
2022/08/12 15:29:32;;;;;;;;;;;45.50;57.80;;;;;;5029140;28;19925;-69
2022/08/12 15:32:00;;;;;;;;;;;45.10;58.20;;;;;;5030622;28;19972;-69
2022/08/12 15:34:27;;;;;;;;;;;44.90;57.80;;;;;;5024095;28;19925;-69
2022/08/12 15:36:54;;;;;;;;;;;44.30;58.10;;;;;;5030703;28;19925;-68
2022/08/12 15:39:22;;;;;;;;;;;43.70;58.40;;;;;;5028543;28;20359;-69
2022/08/12 15:41:49;;;;;;;;;;;43.70;58.60;;;;;;5030490;28;19960;-68
2022/08/12 15:44:16;;;;;;;;;;;43.60;58.40;;;;;;5030020;28;19932;-69
2022/08/12 15:46:42;;;;;;;;;;;42.30;58.10;;;;;;5029382;28;19925;-68
2022/08/12 15:49:09;;;;;;;;;;;41.30;58.90;;;;;;5029469;28;19979;-68
2022/08/12 15:51:36;;;;;;;;;;;41.00;58.70;;;;;;5046721;28;19925;-68
2022/08/12 15:54:06;;;;;;;;;;;40.30;58.90;;;;;;5030169;28;20389;-69
2022/08/12 15:56:37;;;;;;;;;;;40.30;59.30;;;;;;5030380;28;19925;-69
2022/08/12 15:59:04;;;;;;;;;;;39.90;59.30;;;;;;5029584;28;19925;-69
2022/08/12 16:01:31;;;;;;;;;;;39.70;59.10;;;;;;5031024;28;19947;-68
2022/08/12 16:03:58;;;;;;;;;;;39.80;59.50;;;;;;5027768;28;19926;-68
2022/08/12 16:06:25;;;;;;;;;;;40.00;59.10;;;;;;5031820;28;20434;-68